createdAt,value
2018-09-23T00:01:18.921Z,12.50
2018-09-23T00:03:46.478Z,12.60
2018-09-23T00:06:14.048Z,12.50
2018-09-23T00:08:41.633Z,12.50
2018-09-23T00:11:09.213Z,12.50
2018-09-23T00:13:38.062Z,12.50
2018-09-23T00:16:05.781Z,12.50
2018-09-23T00:18:33.390Z,12.50
2018-09-23T00:21:00.978Z,12.50
2018-09-23T00:23:28.580Z,12.40
2018-09-23T00:25:56.130Z,12.40
2018-09-23T00:28:23.688Z,12.50
2018-09-23T00:30:51.569Z,12.50
2018-09-23T00:33:19.138Z,12.40
2018-09-23T00:35:46.863Z,12.40
2018-09-23T00:38:14.453Z,12.40
2018-09-23T00:40:42.017Z,12.40
2018-09-23T00:43:09.670Z,12.40
2018-09-23T00:45:37.497Z,12.40
2018-09-23T00:48:05.064Z,12.40
2018-09-23T00:50:32.709Z,12.40
2018-09-23T00:53:00.281Z,12.40
2018-09-23T00:55:27.870Z,12.40
2018-09-23T00:57:57.273Z,12.40
2018-09-23T01:00:24.886Z,12.40
2018-09-23T01:02:52.463Z,12.40
2018-09-23T01:05:20.286Z,12.40
2018-09-23T01:07:47.869Z,12.40
2018-09-23T01:10:15.706Z,12.40
2018-09-23T01:12:43.447Z,12.40
2018-09-23T01:15:10.984Z,12.40
2018-09-23T01:17:38.549Z,12.50
2018-09-23T01:20:06.165Z,12.50
2018-09-23T01:22:33.984Z,12.40
2018-09-23T01:25:01.733Z,12.40
2018-09-23T01:27:29.521Z,12.30
2018-09-23T01:29:57.177Z,12.30
2018-09-23T01:32:24.957Z,12.30
2018-09-23T01:34:52.560Z,12.30
2018-09-23T01:37:20.158Z,12.40
2018-09-23T01:39:47.893Z,12.40
2018-09-23T01:42:15.467Z,12.40
2018-09-23T01:44:43.004Z,12.30
2018-09-23T01:47:10.717Z,12.30
2018-09-23T01:49:38.294Z,12.40
2018-09-23T01:52:05.925Z,12.40
2018-09-23T01:54:33.530Z,12.30
2018-09-23T01:57:01.085Z,12.40
2018-09-23T01:59:28.652Z,12.40
2018-09-23T02:01:56.220Z,12.40
2018-09-23T02:04:23.856Z,12.50
2018-09-23T02:06:51.429Z,12.50
2018-09-23T02:09:19.004Z,12.40
2018-09-23T02:11:46.737Z,12.40
2018-09-23T02:14:14.337Z,12.40
2018-09-23T02:16:41.900Z,12.40
2018-09-23T02:19:09.473Z,12.40
2018-09-23T02:21:37.019Z,12.50
2018-09-23T02:24:04.609Z,12.50
2018-09-23T02:26:32.176Z,12.40
2018-09-23T02:28:59.736Z,12.50
2018-09-23T02:31:27.393Z,12.40
2018-09-23T02:33:54.965Z,12.40
2018-09-23T02:36:23.041Z,12.40
2018-09-23T02:38:50.613Z,12.40
2018-09-23T02:41:18.158Z,12.50
2018-09-23T02:43:45.721Z,12.50
2018-09-23T02:46:13.273Z,12.40
2018-09-23T02:48:40.849Z,12.40
2018-09-23T02:51:08.413Z,12.40
2018-09-23T02:53:35.966Z,12.40
2018-09-23T02:56:03.836Z,12.50
2018-09-23T02:58:31.405Z,12.40
2018-09-23T03:00:59.045Z,12.40
2018-09-23T03:03:26.625Z,12.40
2018-09-23T03:05:54.240Z,12.50
2018-09-23T03:08:22.407Z,12.50
2018-09-23T03:10:50.009Z,12.50
2018-09-23T03:13:17.583Z,12.50
2018-09-23T03:15:45.186Z,12.50
2018-09-23T03:18:12.909Z,12.50
2018-09-23T03:20:40.461Z,12.50
2018-09-23T03:23:08.440Z,12.50
2018-09-23T03:25:36.014Z,12.50
2018-09-23T03:28:04.249Z,12.50
2018-09-23T03:30:33.817Z,12.50
2018-09-23T03:33:01.385Z,12.40
2018-09-23T03:35:28.941Z,12.40
2018-09-23T03:37:57.209Z,12.40
2018-09-23T03:40:24.773Z,12.40
2018-09-23T03:42:52.412Z,12.40
2018-09-23T03:45:19.946Z,12.40
2018-09-23T03:47:47.509Z,12.40
2018-09-23T03:50:15.064Z,12.40
2018-09-23T03:52:42.677Z,12.50
2018-09-23T03:55:10.245Z,12.50
2018-09-23T03:57:37.789Z,12.50
2018-09-23T04:00:05.657Z,12.50
2018-09-23T04:02:33.365Z,12.40
2018-09-23T04:05:01.233Z,12.50
2018-09-23T04:07:28.786Z,12.50
2018-09-23T04:09:56.741Z,12.40
2018-09-23T04:12:24.344Z,12.30
2018-09-23T04:14:51.963Z,12.40
2018-09-23T04:17:19.541Z,12.40
2018-09-23T04:19:47.119Z,12.40
2018-09-23T04:22:14.668Z,12.40
2018-09-23T04:24:42.321Z,12.40
2018-09-23T04:27:09.890Z,12.40
2018-09-23T04:29:37.530Z,12.40
2018-09-23T04:32:05.394Z,12.40
2018-09-23T04:34:32.997Z,12.40
2018-09-23T04:37:00.549Z,12.50
2018-09-23T04:39:28.121Z,12.50
2018-09-23T04:41:56.115Z,12.50
2018-09-23T04:44:23.698Z,12.40
2018-09-23T04:46:51.236Z,12.50
2018-09-23T04:49:18.797Z,12.50
2018-09-23T04:51:46.344Z,12.50
2018-09-23T04:54:13.929Z,12.50
2018-09-23T04:56:41.617Z,12.50
2018-09-23T04:59:09.233Z,12.50
2018-09-23T05:01:36.867Z,12.50
2018-09-23T05:04:04.457Z,12.50
2018-09-23T05:06:32.031Z,12.40
2018-09-23T05:08:59.604Z,12.50
2018-09-23T05:11:27.169Z,12.40
2018-09-23T05:13:54.822Z,12.50
2018-09-23T05:16:22.445Z,12.50
2018-09-23T05:18:50.012Z,12.50
2018-09-23T05:21:17.581Z,12.50
2018-09-23T05:23:45.274Z,12.60
2018-09-23T05:26:12.821Z,12.60
2018-09-23T05:28:40.937Z,12.60
2018-09-23T05:31:09.038Z,12.60
2018-09-23T05:33:37.050Z,12.60
2018-09-23T05:36:06.065Z,12.60
2018-09-23T05:38:35.537Z,12.60
2018-09-23T05:41:03.097Z,12.50
2018-09-23T05:43:30.793Z,12.60
2018-09-23T05:45:58.342Z,12.50
2018-09-23T05:48:26.981Z,12.60
2018-09-23T05:50:56.181Z,12.70
2018-09-23T05:53:25.745Z,12.70
2018-09-23T05:55:53.418Z,12.60
2018-09-23T05:58:21.094Z,12.70
2018-09-23T06:00:51.025Z,12.70
2018-09-23T06:03:18.606Z,12.70
2018-09-23T06:05:46.964Z,12.70
2018-09-23T06:08:14.881Z,12.70
2018-09-23T06:10:44.450Z,12.70
2018-09-23T06:13:12.478Z,12.80
2018-09-23T06:15:40.597Z,12.80
2018-09-23T06:18:08.320Z,12.80
2018-09-23T06:20:35.890Z,12.90
2018-09-23T06:23:03.508Z,12.90
2018-09-23T06:25:32.643Z,12.90
2018-09-23T06:28:00.757Z,12.90
2018-09-23T06:30:28.473Z,13.00
2018-09-23T06:32:55.997Z,13.00
2018-09-23T06:35:24.123Z,13.00
2018-09-23T06:38:22.799Z,13.00
2018-09-23T06:40:51.050Z,13.00
2018-09-23T06:43:19.455Z,13.00
2018-09-23T06:45:47.692Z,13.10
2018-09-23T06:48:15.265Z,13.10
2018-09-23T06:50:42.864Z,13.20
2018-09-23T06:53:10.409Z,13.20
2018-09-23T06:55:37.985Z,13.20
2018-09-23T06:58:05.858Z,13.20
2018-09-23T07:00:33.442Z,13.40
2018-09-23T07:03:01.774Z,13.40
2018-09-23T07:05:29.350Z,13.40
2018-09-23T07:07:56.921Z,13.50
2018-09-23T07:10:24.756Z,13.50
2018-09-23T07:12:52.256Z,13.50
2018-09-23T07:15:19.822Z,13.50
2018-09-23T07:17:47.827Z,13.60
2018-09-23T07:20:15.570Z,13.70
2018-09-23T07:22:43.381Z,13.70
2018-09-23T07:25:11.002Z,13.70
2018-09-23T07:27:38.610Z,13.80
2018-09-23T07:30:06.346Z,13.80
2018-09-23T07:32:34.346Z,13.80
2018-09-23T07:35:01.990Z,13.80
2018-09-23T07:37:29.533Z,13.90
2018-09-23T07:39:57.178Z,13.90
2018-09-23T07:42:24.890Z,13.90
2018-09-23T07:44:52.510Z,14.00
2018-09-23T07:47:20.057Z,14.10
2018-09-23T07:49:47.670Z,14.10
2018-09-23T07:52:15.408Z,14.10
2018-09-23T07:54:43.029Z,14.00
2018-09-23T07:57:10.569Z,14.10
2018-09-23T07:59:38.137Z,14.10
2018-09-23T08:02:05.677Z,14.20
2018-09-23T08:04:33.301Z,14.20
2018-09-23T08:07:00.905Z,14.30
2018-09-23T08:09:28.474Z,14.30
2018-09-23T08:11:56.071Z,14.30
2018-09-23T08:14:24.046Z,14.50
2018-09-23T08:16:51.340Z,14.50
2018-09-23T08:19:19.100Z,14.60
2018-09-23T08:21:46.597Z,14.60
2018-09-23T08:24:15.150Z,14.60
2018-09-23T08:26:42.718Z,14.70
2018-09-23T08:29:10.321Z,14.70
2018-09-23T08:31:37.897Z,14.70
2018-09-23T08:34:05.946Z,14.70
2018-09-23T08:36:33.538Z,14.80
2018-09-23T08:39:01.121Z,14.90
2018-09-23T08:41:28.669Z,15.00
2018-09-23T08:43:56.974Z,14.90
2018-09-23T08:46:24.830Z,15.20
2018-09-23T08:48:52.666Z,15.10
2018-09-23T08:51:20.229Z,15.00
2018-09-23T08:53:49.073Z,15.00
2018-09-23T08:56:17.228Z,15.00
2018-09-23T08:58:44.786Z,14.80
2018-09-23T09:01:12.386Z,14.90
2018-09-23T09:03:41.300Z,14.80
2018-09-23T09:06:09.280Z,15.00
2018-09-23T09:08:37.223Z,15.00
2018-09-23T09:11:04.886Z,15.10
2018-09-23T09:13:33.040Z,15.00
2018-09-23T09:16:00.621Z,15.10
2018-09-23T09:18:28.270Z,15.10
2018-09-23T09:20:55.905Z,15.10
2018-09-23T09:23:23.454Z,15.40
2018-09-23T09:25:51.084Z,15.60
2018-09-23T09:28:18.682Z,16.00
2018-09-23T09:30:46.261Z,16.10
2018-09-23T09:33:13.827Z,16.00
2018-09-23T09:35:42.353Z,15.80
2018-09-23T09:38:09.894Z,15.80
2018-09-23T09:40:37.462Z,15.80
2018-09-23T09:43:05.037Z,15.90
2018-09-23T09:45:32.633Z,15.60
2018-09-23T09:48:00.189Z,15.50
2018-09-23T09:50:27.787Z,15.40
2018-09-23T09:52:55.338Z,15.30
2018-09-23T09:55:23.537Z,15.30
2018-09-23T09:57:53.014Z,15.40
2018-09-23T10:00:35.749Z,15.50
2018-09-23T10:03:05.899Z,15.50
2018-09-23T10:05:34.562Z,15.60
2018-09-23T10:08:02.549Z,15.50
2018-09-23T10:10:31.224Z,15.30
2018-09-23T10:12:59.285Z,15.40
2018-09-23T10:15:26.933Z,15.60
2018-09-23T10:17:55.085Z,15.90
2018-09-23T10:20:22.769Z,15.90
2018-09-23T10:22:50.351Z,16.20
2018-09-23T10:25:17.934Z,16.70
2018-09-23T10:27:45.485Z,16.70
2018-09-23T10:30:13.096Z,16.90
2018-09-23T10:32:40.700Z,16.90
2018-09-23T10:35:08.267Z,16.60
2018-09-23T10:37:36.131Z,16.40
2018-09-23T10:40:03.872Z,16.30
2018-09-23T10:42:32.246Z,16.10
2018-09-23T10:44:59.826Z,16.00
2018-09-23T10:47:27.473Z,15.90
2018-09-23T10:49:55.043Z,15.80
2018-09-23T10:52:22.674Z,15.80
2018-09-23T10:54:50.253Z,15.80
2018-09-23T10:57:18.037Z,15.80
2018-09-23T10:59:45.607Z,15.60
2018-09-23T11:02:13.453Z,15.60
2018-09-23T11:04:41.036Z,15.60
2018-09-23T11:07:08.613Z,15.40
2018-09-23T11:09:36.251Z,15.40
2018-09-23T11:12:03.885Z,15.20
2018-09-23T11:14:31.501Z,15.10
2018-09-23T11:16:59.301Z,14.90
2018-09-23T11:19:26.881Z,14.80
2018-09-23T11:21:54.443Z,14.70
2018-09-23T11:24:22.034Z,14.70
2018-09-23T11:26:49.587Z,14.80
2018-09-23T11:29:17.125Z,14.90
2018-09-23T11:31:44.682Z,14.90
2018-09-23T11:34:12.457Z,14.90
2018-09-23T11:36:40.033Z,14.80
2018-09-23T11:39:09.318Z,14.70
2018-09-23T11:41:37.013Z,14.60
2018-09-23T11:44:04.609Z,14.50
2018-09-23T11:46:32.178Z,14.50
2018-09-23T11:48:59.877Z,14.50
2018-09-23T11:51:27.983Z,14.40
2018-09-23T11:53:55.658Z,14.40
2018-09-23T11:56:23.270Z,14.30
2018-09-23T11:58:50.914Z,14.20
2018-09-23T12:01:18.489Z,14.20
2018-09-23T12:03:46.090Z,14.10
2018-09-23T12:06:13.648Z,14.00
2018-09-23T12:08:41.270Z,13.90
2018-09-23T12:11:08.911Z,13.80
2018-09-23T12:13:37.293Z,13.70
2018-09-23T12:16:05.755Z,13.50
2018-09-23T12:18:34.244Z,13.40
2018-09-23T12:21:03.269Z,13.50
2018-09-23T12:23:30.869Z,13.50
2018-09-23T12:25:58.845Z,13.50
2018-09-23T12:28:26.370Z,13.40
2018-09-23T12:30:54.193Z,13.40
2018-09-23T12:33:21.839Z,13.20
2018-09-23T12:35:49.349Z,13.20
2018-09-23T12:38:16.929Z,13.20
2018-09-23T12:40:44.489Z,13.10
2018-09-23T12:43:12.045Z,13.00
2018-09-23T12:45:39.614Z,13.00
2018-09-23T12:48:07.378Z,12.90
2018-09-23T12:50:34.918Z,12.80
2018-09-23T12:53:02.547Z,12.80
2018-09-23T12:55:30.106Z,12.80
2018-09-23T12:57:57.668Z,12.70
2018-09-23T13:00:25.323Z,12.70
2018-09-23T13:02:52.946Z,12.70
2018-09-23T13:05:20.513Z,12.70
2018-09-23T13:07:48.065Z,12.70
2018-09-23T13:10:15.685Z,12.80
2018-09-23T13:12:43.245Z,12.70
2018-09-23T13:15:10.858Z,12.70
2018-09-23T13:17:38.630Z,12.70
2018-09-23T13:20:06.573Z,12.70
2018-09-23T13:22:34.121Z,12.70
2018-09-23T13:25:01.675Z,12.60
2018-09-23T13:27:29.238Z,12.70
2018-09-23T13:29:56.795Z,12.80
2018-09-23T13:32:24.393Z,12.70
2018-09-23T13:35:02.095Z,12.70
2018-09-23T13:37:33.968Z,12.70
2018-09-23T13:42:41.591Z,12.90
2018-09-23T13:45:15.998Z,13.00
2018-09-23T13:47:50.018Z,13.00
2018-09-23T13:50:22.901Z,13.00
2018-09-23T13:52:56.396Z,12.90
2018-09-23T13:55:34.103Z,12.90
2018-09-23T13:58:04.746Z,12.80
2018-09-23T14:00:40.870Z,12.80
2018-09-23T14:03:08.822Z,12.90
2018-09-23T14:05:36.660Z,12.90
2018-09-23T14:08:04.421Z,12.80
2018-09-23T14:10:31.961Z,12.80
2018-09-23T14:13:04.393Z,12.70
2018-09-23T14:15:31.957Z,12.70
2018-09-23T14:17:59.602Z,12.70
2018-09-23T14:20:27.143Z,12.70
2018-09-23T14:22:54.697Z,12.80
2018-09-23T14:25:22.249Z,12.60
2018-09-23T14:27:49.805Z,12.50
2018-09-23T14:30:17.345Z,12.50
2018-09-23T14:32:44.949Z,12.40
2018-09-23T14:35:12.525Z,12.30
2018-09-23T14:37:40.077Z,12.20
2018-09-23T14:40:07.634Z,12.30
2018-09-23T14:42:35.214Z,12.30
2018-09-23T14:45:03.758Z,12.20
2018-09-23T14:47:31.309Z,12.20
2018-09-23T14:49:58.865Z,12.10
2018-09-23T14:52:26.412Z,12.10
2018-09-23T14:54:54.108Z,12.20
2018-09-23T14:57:21.526Z,12.10
2018-09-23T14:59:54.193Z,12.10
2018-09-23T15:02:17.813Z,12.10
2018-09-23T15:04:45.365Z,12.00
2018-09-23T15:07:13.843Z,12.00
2018-09-23T15:09:41.502Z,12.00
2018-09-23T15:12:11.913Z,12.00
2018-09-23T15:14:39.451Z,12.00
2018-09-23T15:17:07.172Z,12.00
2018-09-23T15:19:34.769Z,12.00
2018-09-23T15:22:02.309Z,11.90
2018-09-23T15:24:29.875Z,11.90
2018-09-23T15:26:57.589Z,11.90
2018-09-23T15:29:25.382Z,11.80
2018-09-23T15:31:53.196Z,11.70
2018-09-23T15:34:21.414Z,11.60
2018-09-23T15:36:49.095Z,11.60
2018-09-23T15:39:16.698Z,11.50
2018-09-23T15:41:44.277Z,11.50
2018-09-23T15:44:11.802Z,11.60
2018-09-23T15:46:39.373Z,11.60
2018-09-23T15:49:06.957Z,11.50
2018-09-23T15:51:36.348Z,11.50
2018-09-23T15:54:03.905Z,11.50
2018-09-23T15:56:31.483Z,11.50
2018-09-23T15:58:59.029Z,11.60
2018-09-23T16:01:26.585Z,11.60
2018-09-23T16:03:54.144Z,11.70
2018-09-23T16:06:21.705Z,11.70
2018-09-23T16:08:49.217Z,11.70
2018-09-23T16:11:16.833Z,11.70
2018-09-23T16:13:44.420Z,11.70
2018-09-23T16:16:12.077Z,11.70
2018-09-23T16:18:39.754Z,11.70
2018-09-23T16:21:07.189Z,11.60
2018-09-23T16:23:34.737Z,11.60
2018-09-23T16:26:02.416Z,11.50
2018-09-23T16:28:29.892Z,11.50
2018-09-23T16:30:57.525Z,11.40
2018-09-23T16:33:25.103Z,11.40
2018-09-23T16:35:52.680Z,11.40
2018-09-23T16:38:20.833Z,11.30
2018-09-23T16:40:49.020Z,11.30
2018-09-23T16:43:17.284Z,11.40
2018-09-23T16:45:44.879Z,11.30
2018-09-23T16:48:13.530Z,11.40
2018-09-23T16:50:43.903Z,11.30
2018-09-23T16:53:11.545Z,11.20
2018-09-23T16:55:39.313Z,11.20
2018-09-23T16:58:07.122Z,11.20
2018-09-23T17:00:34.894Z,11.10
2018-09-23T17:03:03.934Z,10.90
2018-09-23T17:05:33.740Z,10.90
2018-09-23T17:08:03.987Z,10.80
2018-09-23T17:10:34.708Z,10.80
2018-09-23T17:13:04.758Z,10.70
2018-09-23T17:15:33.806Z,10.60
2018-09-23T17:18:03.187Z,10.60
2018-09-23T17:20:32.248Z,10.50
2018-09-23T17:23:01.419Z,10.50
2018-09-23T17:25:30.577Z,10.60
2018-09-23T17:27:59.795Z,10.50
2018-09-23T17:30:32.007Z,10.50
2018-09-23T17:33:01.039Z,10.40
2018-09-23T17:35:30.432Z,10.40
2018-09-23T17:38:00.066Z,10.50
2018-09-23T17:40:29.627Z,10.30
2018-09-23T17:43:00.369Z,10.40
2018-09-23T17:45:30.585Z,10.40
2018-09-23T17:48:02.830Z,10.40
2018-09-23T17:50:32.353Z,10.40
2018-09-23T17:53:02.549Z,10.30
2018-09-23T17:55:32.094Z,10.30
2018-09-23T17:58:02.627Z,10.20
2018-09-23T18:00:31.504Z,10.20
2018-09-23T18:03:00.680Z,10.30
2018-09-23T18:05:29.666Z,10.30
2018-09-23T18:07:59.446Z,10.30
2018-09-23T18:10:28.509Z,10.30
2018-09-23T18:12:57.363Z,10.30
2018-09-23T18:15:26.257Z,10.40
2018-09-23T18:17:55.166Z,10.30
2018-09-23T18:20:24.258Z,10.40
2018-09-23T18:22:53.141Z,10.40
2018-09-23T18:25:21.884Z,10.40
2018-09-23T18:27:51.210Z,10.40
2018-09-23T18:30:22.722Z,10.30
2018-09-23T18:32:51.981Z,10.40
2018-09-23T18:35:21.041Z,10.40
2018-09-23T18:37:50.120Z,10.40
2018-09-23T18:40:19.484Z,10.50
2018-09-23T18:42:48.480Z,10.50
2018-09-23T18:45:18.828Z,10.40
2018-09-23T18:47:48.723Z,10.40
2018-09-23T18:50:18.211Z,10.40
2018-09-23T18:52:53.862Z,10.40
2018-09-23T18:55:29.985Z,10.50
2018-09-23T18:58:01.409Z,10.50
2018-09-23T19:00:30.328Z,10.60
2018-09-23T19:02:59.804Z,10.60
2018-09-23T19:05:28.841Z,10.70
2018-09-23T19:07:58.332Z,10.70
2018-09-23T19:10:27.874Z,10.80
2018-09-23T19:13:02.296Z,10.80
2018-09-23T19:15:30.529Z,10.80
2018-09-23T19:17:58.690Z,10.80
2018-09-23T19:20:26.254Z,10.80
2018-09-23T19:22:59.514Z,10.80
2018-09-23T19:25:27.078Z,10.70
2018-09-23T19:27:54.616Z,10.60
2018-09-23T19:30:22.704Z,10.50
2018-09-23T19:32:50.588Z,10.50
2018-09-23T19:35:19.177Z,10.50
2018-09-23T19:37:46.946Z,10.40
2018-09-23T19:40:14.542Z,10.40
2018-09-23T19:42:42.248Z,10.40
2018-09-23T19:45:09.832Z,10.40
2018-09-23T19:47:37.377Z,10.30
2018-09-23T19:50:05.039Z,10.30
2018-09-23T19:52:32.803Z,10.30
2018-09-23T19:55:00.810Z,10.30
2018-09-23T19:57:28.390Z,10.30
2018-09-23T19:59:56.442Z,10.30
2018-09-23T20:02:24.207Z,10.30
2018-09-23T20:04:52.971Z,10.30
2018-09-23T20:07:21.253Z,10.20
2018-09-23T20:09:48.899Z,10.30
2018-09-23T20:12:16.692Z,10.30
2018-09-23T20:14:44.746Z,10.30
2018-09-23T20:17:12.314Z,10.30
2018-09-23T20:19:39.911Z,10.20
2018-09-23T20:22:08.606Z,10.30
2018-09-23T20:24:36.249Z,10.20
2018-09-23T20:27:03.813Z,10.20
2018-09-23T20:29:31.437Z,10.20
2018-09-23T20:31:59.346Z,10.20
2018-09-23T20:34:27.006Z,10.20
2018-09-23T20:36:56.923Z,10.20
2018-09-23T20:39:24.506Z,10.20
2018-09-23T20:41:52.059Z,10.20
2018-09-23T20:44:19.697Z,10.10
2018-09-23T20:46:47.273Z,10.10
2018-09-23T20:49:17.728Z,10.10
2018-09-23T20:51:45.265Z,10.10
2018-09-23T20:54:12.918Z,10.20
2018-09-23T20:56:40.900Z,10.30
2018-09-23T20:59:08.665Z,10.30
2018-09-23T21:01:36.240Z,10.20
2018-09-23T21:04:03.807Z,10.20
2018-09-23T21:06:31.485Z,10.30
2018-09-23T21:08:59.075Z,10.30
2018-09-23T21:11:26.621Z,10.40
2018-09-23T21:13:54.211Z,10.40
2018-09-23T21:16:21.753Z,10.40
2018-09-23T21:18:49.326Z,10.30
2018-09-23T21:21:17.080Z,10.30
2018-09-23T21:23:44.773Z,10.30
2018-09-23T21:26:12.368Z,10.30
2018-09-23T21:28:39.874Z,10.30
2018-09-23T21:31:07.432Z,10.30
2018-09-23T21:33:35.001Z,10.20
2018-09-23T21:36:02.562Z,10.20
2018-09-23T21:38:30.694Z,10.30
2018-09-23T21:40:58.271Z,10.30
2018-09-23T21:43:25.987Z,10.30
2018-09-23T21:45:53.537Z,10.20
2018-09-23T21:48:21.209Z,10.20
2018-09-23T21:50:49.453Z,10.20
2018-09-23T21:53:17.330Z,10.30
2018-09-23T21:55:44.909Z,10.20
2018-09-23T21:58:12.512Z,10.30
2018-09-23T22:00:42.031Z,10.20
2018-09-23T22:03:10.623Z,10.20
2018-09-23T22:05:38.583Z,10.20
2018-09-23T22:08:06.133Z,10.10
2018-09-23T22:10:33.837Z,10.20
2018-09-23T22:13:01.702Z,10.10
2018-09-23T22:15:29.403Z,10.10
2018-09-23T22:17:57.293Z,10.10
2018-09-23T22:20:25.697Z,10.10
2018-09-23T22:22:53.735Z,10.10
2018-09-23T22:25:22.286Z,10.10
2018-09-23T22:27:50.193Z,10.10
2018-09-23T22:30:17.838Z,10.10
2018-09-23T22:32:45.341Z,10.00
2018-09-23T22:35:12.893Z,9.90
2018-09-23T22:37:40.559Z,9.90
2018-09-23T22:40:08.899Z,10.00
2018-09-23T22:42:37.421Z,9.90
2018-09-23T22:45:05.473Z,9.90
2018-09-23T22:47:33.049Z,9.90
2018-09-23T22:50:00.630Z,9.80
2018-09-23T22:52:28.205Z,9.80
2018-09-23T22:54:55.985Z,9.80
2018-09-23T22:57:23.549Z,9.90
2018-09-23T22:59:51.129Z,9.80
2018-09-23T23:02:18.888Z,9.90
2018-09-23T23:04:46.418Z,9.80
2018-09-23T23:07:13.957Z,9.80
2018-09-23T23:09:41.489Z,9.80
2018-09-23T23:12:09.030Z,9.80
2018-09-23T23:14:36.621Z,9.70
2018-09-23T23:17:04.257Z,9.60
2018-09-23T23:19:31.836Z,9.60
2018-09-23T23:21:59.396Z,9.60
2018-09-23T23:24:26.910Z,9.60
2018-09-23T23:26:54.456Z,9.70
2018-09-23T23:29:21.997Z,9.70
2018-09-23T23:31:49.549Z,9.60
2018-09-23T23:34:17.093Z,9.70
2018-09-23T23:36:44.637Z,9.60
2018-09-23T23:39:12.163Z,9.60
2018-09-23T23:41:39.946Z,9.60
2018-09-23T23:44:07.677Z,9.50
2018-09-23T23:46:35.472Z,9.50
2018-09-23T23:49:03.220Z,9.50
2018-09-23T23:51:30.781Z,9.50
2018-09-23T23:53:58.340Z,9.50
2018-09-23T23:56:26.341Z,9.50
2018-09-23T23:58:53.870Z,9.50
